sensor_id;sensor_type;location;lat;lon;timestamp;temperature;humidity
31799;DHT22;18374;51.136;3.502;2022-07-04T00:00:36;14.70;99.90
31799;DHT22;18374;51.136;3.502;2022-07-04T00:03:04;14.70;99.90
31799;DHT22;18374;51.136;3.502;2022-07-04T00:05:32;14.60;99.90
31799;DHT22;18374;51.136;3.502;2022-07-04T00:08:00;14.60;99.90
31799;DHT22;18374;51.136;3.502;2022-07-04T00:10:28;14.60;99.90
31799;DHT22;18374;51.136;3.502;2022-07-04T00:12:56;14.60;99.90
31799;DHT22;18374;51.136;3.502;2022-07-04T00:15:24;14.50;99.90
31799;DHT22;18374;51.136;3.502;2022-07-04T00:17:52;14.40;99.90
31799;DHT22;18374;51.136;3.502;2022-07-04T00:20:19;14.30;99.90
31799;DHT22;18374;51.136;3.502;2022-07-04T00:22:47;14.20;99.90
31799;DHT22;18374;51.136;3.502;2022-07-04T00:25:15;14.10;99.90
31799;DHT22;18374;51.136;3.502;2022-07-04T00:27:42;14.00;99.90
31799;DHT22;18374;51.136;3.502;2022-07-04T00:30:10;14.00;99.90
31799;DHT22;18374;51.136;3.502;2022-07-04T00:32:38;14.00;99.90
31799;DHT22;18374;51.136;3.502;2022-07-04T00:35:06;14.00;99.90
31799;DHT22;18374;51.136;3.502;2022-07-04T00:37:35;14.00;99.90
31799;DHT22;18374;51.136;3.502;2022-07-04T00:40:03;14.00;99.90
31799;DHT22;18374;51.136;3.502;2022-07-04T00:42:31;14.00;99.90
31799;DHT22;18374;51.136;3.502;2022-07-04T00:44:59;13.90;99.90
31799;DHT22;18374;51.136;3.502;2022-07-04T00:47:27;13.90;99.90
31799;DHT22;18374;51.136;3.502;2022-07-04T00:49:54;13.90;99.90
31799;DHT22;18374;51.136;3.502;2022-07-04T00:52:22;13.90;99.90
31799;DHT22;18374;51.136;3.502;2022-07-04T00:54:50;13.90;99.90
31799;DHT22;18374;51.136;3.502;2022-07-04T00:57:18;14.00;99.90
31799;DHT22;18374;51.136;3.502;2022-07-04T00:59:45;14.00;99.90
31799;DHT22;18374;51.136;3.502;2022-07-04T01:02:13;14.00;99.90
31799;DHT22;18374;51.136;3.502;2022-07-04T01:04:41;14.00;99.90
31799;DHT22;18374;51.136;3.502;2022-07-04T01:07:11;14.00;99.90
31799;DHT22;18374;51.136;3.502;2022-07-04T01:09:39;13.90;99.90
31799;DHT22;18374;51.136;3.502;2022-07-04T01:12:07;13.90;99.90
31799;DHT22;18374;51.136;3.502;2022-07-04T01:14:38;13.90;99.90
31799;DHT22;18374;51.136;3.502;2022-07-04T01:17:06;13.80;99.90
31799;DHT22;18374;51.136;3.502;2022-07-04T01:19:34;13.70;99.90
31799;DHT22;18374;51.136;3.502;2022-07-04T01:22:05;13.70;99.90
31799;DHT22;18374;51.136;3.502;2022-07-04T01:24:34;13.80;99.90
31799;DHT22;18374;51.136;3.502;2022-07-04T01:27:01;13.80;99.90
31799;DHT22;18374;51.136;3.502;2022-07-04T01:29:31;13.70;99.90
31799;DHT22;18374;51.136;3.502;2022-07-04T01:32:07;13.60;99.90
31799;DHT22;18374;51.136;3.502;2022-07-04T01:34:36;13.50;99.90
31799;DHT22;18374;51.136;3.502;2022-07-04T01:37:10;13.40;99.90
31799;DHT22;18374;51.136;3.502;2022-07-04T01:39:39;13.40;99.90
31799;DHT22;18374;51.136;3.502;2022-07-04T01:42:07;13.40;99.90
31799;DHT22;18374;51.136;3.502;2022-07-04T01:44:35;13.50;99.90
31799;DHT22;18374;51.136;3.502;2022-07-04T01:47:03;13.50;99.90
31799;DHT22;18374;51.136;3.502;2022-07-04T01:49:31;13.50;99.90
31799;DHT22;18374;51.136;3.502;2022-07-04T01:51:58;13.40;99.90
31799;DHT22;18374;51.136;3.502;2022-07-04T01:54:26;13.30;99.90
31799;DHT22;18374;51.136;3.502;2022-07-04T01:56:54;13.20;99.90
31799;DHT22;18374;51.136;3.502;2022-07-04T01:59:21;13.20;99.90
31799;DHT22;18374;51.136;3.502;2022-07-04T02:02:09;13.10;99.90
31799;DHT22;18374;51.136;3.502;2022-07-04T02:04:37;13.10;99.90
31799;DHT22;18374;51.136;3.502;2022-07-04T02:07:05;13.00;99.90
31799;DHT22;18374;51.136;3.502;2022-07-04T02:09:33;13.00;99.90
31799;DHT22;18374;51.136;3.502;2022-07-04T02:12:01;12.90;99.90
31799;DHT22;18374;51.136;3.502;2022-07-04T02:14:47;12.80;99.90
31799;DHT22;18374;51.136;3.502;2022-07-04T02:17:15;12.80;99.90
31799;DHT22;18374;51.136;3.502;2022-07-04T02:19:43;12.80;99.90
31799;DHT22;18374;51.136;3.502;2022-07-04T02:22:11;12.70;99.90
31799;DHT22;18374;51.136;3.502;2022-07-04T02:24:39;12.80;99.90
31799;DHT22;18374;51.136;3.502;2022-07-04T02:27:07;12.90;99.90
31799;DHT22;18374;51.136;3.502;2022-07-04T02:29:35;13.00;99.90
31799;DHT22;18374;51.136;3.502;2022-07-04T02:32:04;13.00;99.90
31799;DHT22;18374;51.136;3.502;2022-07-04T02:34:32;13.10;99.90
31799;DHT22;18374;51.136;3.502;2022-07-04T02:37:00;13.10;99.90
31799;DHT22;18374;51.136;3.502;2022-07-04T02:39:28;13.10;99.90
31799;DHT22;18374;51.136;3.502;2022-07-04T02:41:55;13.10;99.90
31799;DHT22;18374;51.136;3.502;2022-07-04T02:44:23;13.10;99.90
31799;DHT22;18374;51.136;3.502;2022-07-04T02:46:51;13.10;99.90
31799;DHT22;18374;51.136;3.502;2022-07-04T02:49:19;13.10;99.90
31799;DHT22;18374;51.136;3.502;2022-07-04T02:51:47;13.20;99.90
31799;DHT22;18374;51.136;3.502;2022-07-04T02:54:15;13.10;99.90
31799;DHT22;18374;51.136;3.502;2022-07-04T02:56:43;13.20;99.90
31799;DHT22;18374;51.136;3.502;2022-07-04T02:59:11;13.20;99.90
31799;DHT22;18374;51.136;3.502;2022-07-04T03:01:38;13.20;99.90
31799;DHT22;18374;51.136;3.502;2022-07-04T03:04:06;13.20;99.90
31799;DHT22;18374;51.136;3.502;2022-07-04T03:06:34;13.20;99.90
31799;DHT22;18374;51.136;3.502;2022-07-04T03:09:02;13.20;99.90
31799;DHT22;18374;51.136;3.502;2022-07-04T03:11:29;13.20;99.90
31799;DHT22;18374;51.136;3.502;2022-07-04T03:13:57;13.10;99.90
31799;DHT22;18374;51.136;3.502;2022-07-04T03:16:25;13.20;99.90
31799;DHT22;18374;51.136;3.502;2022-07-04T03:18:53;13.10;99.90
31799;DHT22;18374;51.136;3.502;2022-07-04T03:21:21;13.10;99.90
31799;DHT22;18374;51.136;3.502;2022-07-04T03:23:48;13.10;99.90
31799;DHT22;18374;51.136;3.502;2022-07-04T03:26:26;13.10;99.90
31799;DHT22;18374;51.136;3.502;2022-07-04T03:28:58;13.10;99.90
31799;DHT22;18374;51.136;3.502;2022-07-04T03:31:28;13.10;99.90
31799;DHT22;18374;51.136;3.502;2022-07-04T03:33:56;13.10;99.90
31799;DHT22;18374;51.136;3.502;2022-07-04T03:36:24;13.00;99.90
31799;DHT22;18374;51.136;3.502;2022-07-04T03:38:52;13.10;99.90
31799;DHT22;18374;51.136;3.502;2022-07-04T03:41:19;13.10;99.90
31799;DHT22;18374;51.136;3.502;2022-07-04T03:43:47;13.00;99.90
31799;DHT22;18374;51.136;3.502;2022-07-04T03:46:15;13.10;99.90
31799;DHT22;18374;51.136;3.502;2022-07-04T03:48:42;13.00;99.90
31799;DHT22;18374;51.136;3.502;2022-07-04T03:51:12;13.00;99.90
31799;DHT22;18374;51.136;3.502;2022-07-04T03:53:40;13.10;99.90
31799;DHT22;18374;51.136;3.502;2022-07-04T03:56:08;13.10;99.90
31799;DHT22;18374;51.136;3.502;2022-07-04T03:58:36;13.10;99.90
31799;DHT22;18374;51.136;3.502;2022-07-04T04:01:04;13.10;99.90
31799;DHT22;18374;51.136;3.502;2022-07-04T04:03:32;13.10;99.90
31799;DHT22;18374;51.136;3.502;2022-07-04T04:06:18;13.10;99.90
31799;DHT22;18374;51.136;3.502;2022-07-04T04:08:46;13.10;99.90
31799;DHT22;18374;51.136;3.502;2022-07-04T04:11:14;13.00;99.90
31799;DHT22;18374;51.136;3.502;2022-07-04T04:13:41;12.90;99.90
31799;DHT22;18374;51.136;3.502;2022-07-04T04:16:09;12.80;99.90
31799;DHT22;18374;51.136;3.502;2022-07-04T04:18:37;12.80;99.90
31799;DHT22;18374;51.136;3.502;2022-07-04T04:21:05;12.80;99.90
31799;DHT22;18374;51.136;3.502;2022-07-04T04:23:33;12.80;99.90
31799;DHT22;18374;51.136;3.502;2022-07-04T04:26:01;12.90;99.90
31799;DHT22;18374;51.136;3.502;2022-07-04T04:28:28;12.90;99.90
31799;DHT22;18374;51.136;3.502;2022-07-04T04:30:56;12.90;99.90
31799;DHT22;18374;51.136;3.502;2022-07-04T04:33:24;12.90;99.90
31799;DHT22;18374;51.136;3.502;2022-07-04T04:35:51;12.90;99.90
31799;DHT22;18374;51.136;3.502;2022-07-04T04:38:19;12.90;99.90
31799;DHT22;18374;51.136;3.502;2022-07-04T04:40:46;12.90;99.90
31799;DHT22;18374;51.136;3.502;2022-07-04T04:43:14;13.00;99.90
31799;DHT22;18374;51.136;3.502;2022-07-04T04:45:42;12.90;99.90
31799;DHT22;18374;51.136;3.502;2022-07-04T04:48:10;13.00;99.90
31799;DHT22;18374;51.136;3.502;2022-07-04T04:50:37;13.00;99.90
31799;DHT22;18374;51.136;3.502;2022-07-04T04:53:05;13.00;99.90
31799;DHT22;18374;51.136;3.502;2022-07-04T04:55:33;13.00;99.90
31799;DHT22;18374;51.136;3.502;2022-07-04T04:58:01;13.00;99.90
31799;DHT22;18374;51.136;3.502;2022-07-04T05:00:28;13.10;99.90
31799;DHT22;18374;51.136;3.502;2022-07-04T05:02:56;13.10;99.90
31799;DHT22;18374;51.136;3.502;2022-07-04T05:05:24;13.20;99.90
31799;DHT22;18374;51.136;3.502;2022-07-04T05:07:51;13.20;99.90
31799;DHT22;18374;51.136;3.502;2022-07-04T05:10:19;13.20;99.90
31799;DHT22;18374;51.136;3.502;2022-07-04T05:12:47;13.30;99.90
31799;DHT22;18374;51.136;3.502;2022-07-04T05:15:15;13.30;99.90
31799;DHT22;18374;51.136;3.502;2022-07-04T05:17:43;13.40;99.90
31799;DHT22;18374;51.136;3.502;2022-07-04T05:20:11;13.40;99.90
31799;DHT22;18374;51.136;3.502;2022-07-04T05:22:39;13.40;99.90
31799;DHT22;18374;51.136;3.502;2022-07-04T05:25:07;13.40;99.90
31799;DHT22;18374;51.136;3.502;2022-07-04T05:27:35;13.50;99.90
31799;DHT22;18374;51.136;3.502;2022-07-04T05:30:04;13.60;99.90
31799;DHT22;18374;51.136;3.502;2022-07-04T05:32:33;13.70;99.90
31799;DHT22;18374;51.136;3.502;2022-07-04T05:35:00;13.70;99.90
31799;DHT22;18374;51.136;3.502;2022-07-04T05:37:28;13.70;99.90
31799;DHT22;18374;51.136;3.502;2022-07-04T05:39:56;13.80;99.90
31799;DHT22;18374;51.136;3.502;2022-07-04T05:42:24;13.90;99.90
31799;DHT22;18374;51.136;3.502;2022-07-04T05:44:53;13.90;99.90
31799;DHT22;18374;51.136;3.502;2022-07-04T05:47:20;14.00;99.90
31799;DHT22;18374;51.136;3.502;2022-07-04T05:49:51;14.10;99.90
31799;DHT22;18374;51.136;3.502;2022-07-04T05:52:19;14.20;99.90
31799;DHT22;18374;51.136;3.502;2022-07-04T05:54:46;14.30;99.90
31799;DHT22;18374;51.136;3.502;2022-07-04T05:57:15;14.30;99.90
31799;DHT22;18374;51.136;3.502;2022-07-04T05:59:43;14.40;99.90
31799;DHT22;18374;51.136;3.502;2022-07-04T06:02:12;14.40;99.90
31799;DHT22;18374;51.136;3.502;2022-07-04T06:04:40;14.50;99.90
31799;DHT22;18374;51.136;3.502;2022-07-04T06:07:10;14.60;99.90
31799;DHT22;18374;51.136;3.502;2022-07-04T06:09:38;14.60;99.90
31799;DHT22;18374;51.136;3.502;2022-07-04T06:12:06;14.70;99.90
31799;DHT22;18374;51.136;3.502;2022-07-04T06:14:34;14.70;99.90
31799;DHT22;18374;51.136;3.502;2022-07-04T06:17:02;14.70;99.90
31799;DHT22;18374;51.136;3.502;2022-07-04T06:19:30;14.70;99.90
31799;DHT22;18374;51.136;3.502;2022-07-04T06:21:58;14.80;99.90
31799;DHT22;18374;51.136;3.502;2022-07-04T06:24:26;14.80;99.90
31799;DHT22;18374;51.136;3.502;2022-07-04T06:26:53;14.90;99.90
31799;DHT22;18374;51.136;3.502;2022-07-04T06:29:21;15.00;99.90
31799;DHT22;18374;51.136;3.502;2022-07-04T06:31:49;15.10;99.90
31799;DHT22;18374;51.136;3.502;2022-07-04T06:34:17;15.10;99.90
31799;DHT22;18374;51.136;3.502;2022-07-04T06:37:03;15.20;99.90
31799;DHT22;18374;51.136;3.502;2022-07-04T06:39:32;15.20;99.90
31799;DHT22;18374;51.136;3.502;2022-07-04T06:41:59;15.30;99.90
31799;DHT22;18374;51.136;3.502;2022-07-04T06:44:27;15.40;99.90
31799;DHT22;18374;51.136;3.502;2022-07-04T06:46:54;15.50;99.90
31799;DHT22;18374;51.136;3.502;2022-07-04T06:49:22;15.50;99.90
31799;DHT22;18374;51.136;3.502;2022-07-04T06:51:50;15.60;99.90
31799;DHT22;18374;51.136;3.502;2022-07-04T06:54:18;15.60;99.90
31799;DHT22;18374;51.136;3.502;2022-07-04T06:56:45;15.70;99.90
31799;DHT22;18374;51.136;3.502;2022-07-04T06:59:13;15.70;99.90
31799;DHT22;18374;51.136;3.502;2022-07-04T07:01:41;15.70;99.90
31799;DHT22;18374;51.136;3.502;2022-07-04T07:04:09;15.80;99.90
31799;DHT22;18374;51.136;3.502;2022-07-04T07:06:37;15.90;99.90
31799;DHT22;18374;51.136;3.502;2022-07-04T07:09:05;16.00;99.90
31799;DHT22;18374;51.136;3.502;2022-07-04T07:11:32;16.00;99.90
31799;DHT22;18374;51.136;3.502;2022-07-04T07:14:00;16.10;99.90
31799;DHT22;18374;51.136;3.502;2022-07-04T07:16:28;16.30;99.90
31799;DHT22;18374;51.136;3.502;2022-07-04T07:18:55;16.40;99.90
31799;DHT22;18374;51.136;3.502;2022-07-04T07:21:23;16.50;99.90
31799;DHT22;18374;51.136;3.502;2022-07-04T07:23:51;16.70;99.90
31799;DHT22;18374;51.136;3.502;2022-07-04T07:26:19;16.90;99.90
31799;DHT22;18374;51.136;3.502;2022-07-04T07:28:46;17.10;99.90
31799;DHT22;18374;51.136;3.502;2022-07-04T07:31:14;17.20;99.90
31799;DHT22;18374;51.136;3.502;2022-07-04T07:33:42;17.30;99.90
31799;DHT22;18374;51.136;3.502;2022-07-04T07:36:09;17.40;99.90
31799;DHT22;18374;51.136;3.502;2022-07-04T07:38:37;17.40;99.90
31799;DHT22;18374;51.136;3.502;2022-07-04T07:41:11;17.60;99.90
31799;DHT22;18374;51.136;3.502;2022-07-04T07:43:38;17.70;99.90
31799;DHT22;18374;51.136;3.502;2022-07-04T07:46:08;17.70;99.90
31799;DHT22;18374;51.136;3.502;2022-07-04T07:48:35;17.80;99.90
31799;DHT22;18374;51.136;3.502;2022-07-04T07:51:03;17.80;99.90
31799;DHT22;18374;51.136;3.502;2022-07-04T07:53:31;17.90;99.90
31799;DHT22;18374;51.136;3.502;2022-07-04T07:55:58;18.00;99.90
31799;DHT22;18374;51.136;3.502;2022-07-04T07:58:27;18.10;99.90
31799;DHT22;18374;51.136;3.502;2022-07-04T08:00:55;18.30;99.90
31799;DHT22;18374;51.136;3.502;2022-07-04T08:03:23;18.40;99.90
31799;DHT22;18374;51.136;3.502;2022-07-04T08:06:10;18.40;99.90
31799;DHT22;18374;51.136;3.502;2022-07-04T08:08:43;18.50;99.90
31799;DHT22;18374;51.136;3.502;2022-07-04T08:11:11;18.50;99.90
31799;DHT22;18374;51.136;3.502;2022-07-04T08:13:40;18.60;99.90
31799;DHT22;18374;51.136;3.502;2022-07-04T08:16:08;18.80;99.90
31799;DHT22;18374;51.136;3.502;2022-07-04T08:18:36;18.90;99.90
31799;DHT22;18374;51.136;3.502;2022-07-04T08:21:05;19.10;99.90
31799;DHT22;18374;51.136;3.502;2022-07-04T08:23:39;19.30;99.90
31799;DHT22;18374;51.136;3.502;2022-07-04T08:26:28;19.20;99.90
31799;DHT22;18374;51.136;3.502;2022-07-04T08:28:56;19.40;99.90
31799;DHT22;18374;51.136;3.502;2022-07-04T08:31:25;19.40;99.90
31799;DHT22;18374;51.136;3.502;2022-07-04T08:34:14;19.60;99.90
31799;DHT22;18374;51.136;3.502;2022-07-04T08:36:42;19.80;99.90
31799;DHT22;18374;51.136;3.502;2022-07-04T08:39:10;20.00;99.90
31799;DHT22;18374;51.136;3.502;2022-07-04T08:41:39;20.00;99.90
31799;DHT22;18374;51.136;3.502;2022-07-04T08:44:08;20.20;99.90
31799;DHT22;18374;51.136;3.502;2022-07-04T08:46:40;20.20;99.90
31799;DHT22;18374;51.136;3.502;2022-07-04T08:49:21;20.30;99.90
31799;DHT22;18374;51.136;3.502;2022-07-04T08:51:57;20.40;99.90
31799;DHT22;18374;51.136;3.502;2022-07-04T08:54:30;20.60;99.90
31799;DHT22;18374;51.136;3.502;2022-07-04T08:57:19;20.60;99.90
31799;DHT22;18374;51.136;3.502;2022-07-04T09:00:06;20.60;99.90
31799;DHT22;18374;51.136;3.502;2022-07-04T09:02:34;20.70;99.90
31799;DHT22;18374;51.136;3.502;2022-07-04T09:05:05;20.90;99.90
31799;DHT22;18374;51.136;3.502;2022-07-04T09:07:35;21.00;99.90
31799;DHT22;18374;51.136;3.502;2022-07-04T09:10:03;21.20;99.90
31799;DHT22;18374;51.136;3.502;2022-07-04T09:12:31;21.30;99.90
31799;DHT22;18374;51.136;3.502;2022-07-04T09:15:19;21.20;99.90
31799;DHT22;18374;51.136;3.502;2022-07-04T09:17:47;21.10;99.90
31799;DHT22;18374;51.136;3.502;2022-07-04T09:20:21;20.90;99.90
31799;DHT22;18374;51.136;3.502;2022-07-04T09:22:51;20.70;99.90
31799;DHT22;18374;51.136;3.502;2022-07-04T09:25:22;20.60;99.90
31799;DHT22;18374;51.136;3.502;2022-07-04T09:27:53;20.80;99.90
31799;DHT22;18374;51.136;3.502;2022-07-04T09:30:26;21.00;99.90
31799;DHT22;18374;51.136;3.502;2022-07-04T09:32:56;21.10;99.90
31799;DHT22;18374;51.136;3.502;2022-07-04T09:35:29;21.20;99.90
31799;DHT22;18374;51.136;3.502;2022-07-04T09:38:00;21.50;99.90
31799;DHT22;18374;51.136;3.502;2022-07-04T09:40:33;21.40;99.90
31799;DHT22;18374;51.136;3.502;2022-07-04T09:43:25;21.20;99.90
31799;DHT22;18374;51.136;3.502;2022-07-04T09:45:59;21.10;99.90
31799;DHT22;18374;51.136;3.502;2022-07-04T09:48:49;20.90;99.90
31799;DHT22;18374;51.136;3.502;2022-07-04T09:51:45;20.80;99.90
31799;DHT22;18374;51.136;3.502;2022-07-04T09:54:24;20.70;99.90
31799;DHT22;18374;51.136;3.502;2022-07-04T09:56:58;20.50;99.90
31799;DHT22;18374;51.136;3.502;2022-07-04T09:59:27;20.50;99.90
31799;DHT22;18374;51.136;3.502;2022-07-04T10:02:07;20.70;99.90
31799;DHT22;18374;51.136;3.502;2022-07-04T10:04:52;21.00;99.90
31799;DHT22;18374;51.136;3.502;2022-07-04T10:07:31;21.40;99.90
31799;DHT22;18374;51.136;3.502;2022-07-04T10:10:01;21.80;99.90
31799;DHT22;18374;51.136;3.502;2022-07-04T10:12:49;22.00;99.90
31799;DHT22;18374;51.136;3.502;2022-07-04T10:15:21;22.40;99.90
31799;DHT22;18374;51.136;3.502;2022-07-04T10:17:49;22.30;99.90
31799;DHT22;18374;51.136;3.502;2022-07-04T10:20:17;22.40;99.90
31799;DHT22;18374;51.136;3.502;2022-07-04T10:22:45;22.60;99.90
31799;DHT22;18374;51.136;3.502;2022-07-04T10:25:13;22.80;99.90
31799;DHT22;18374;51.136;3.502;2022-07-04T10:27:41;22.90;99.90
31799;DHT22;18374;51.136;3.502;2022-07-04T10:30:12;23.10;99.90
31799;DHT22;18374;51.136;3.502;2022-07-04T10:32:44;23.30;99.90
31799;DHT22;18374;51.136;3.502;2022-07-04T10:35:14;23.30;99.90
31799;DHT22;18374;51.136;3.502;2022-07-04T10:38:12;23.30;99.90
31799;DHT22;18374;51.136;3.502;2022-07-04T10:40:51;22.90;99.90
31799;DHT22;18374;51.136;3.502;2022-07-04T10:48:35;23.00;99.90
31799;DHT22;18374;51.136;3.502;2022-07-04T10:51:04;23.10;99.90
31799;DHT22;18374;51.136;3.502;2022-07-04T10:54:00;23.10;99.90
31799;DHT22;18374;51.136;3.502;2022-07-04T10:58:56;23.40;99.90
31799;DHT22;18374;51.136;3.502;2022-07-04T11:01:26;23.30;99.90
31799;DHT22;18374;51.136;3.502;2022-07-04T11:03:54;23.10;99.90
31799;DHT22;18374;51.136;3.502;2022-07-04T11:12:04;23.10;99.90
31799;DHT22;18374;51.136;3.502;2022-07-04T11:14:47;22.90;99.90
31799;DHT22;18374;51.136;3.502;2022-07-04T11:17:27;22.60;99.90
31799;DHT22;18374;51.136;3.502;2022-07-04T11:20:01;22.20;99.90
31799;DHT22;18374;51.136;3.502;2022-07-04T11:22:34;22.20;99.90
31799;DHT22;18374;51.136;3.502;2022-07-04T11:25:02;22.10;99.90
31799;DHT22;18374;51.136;3.502;2022-07-04T11:27:30;21.90;99.90
31799;DHT22;18374;51.136;3.502;2022-07-04T11:29:58;21.80;99.90
31799;DHT22;18374;51.136;3.502;2022-07-04T11:32:30;21.50;99.90
31799;DHT22;18374;51.136;3.502;2022-07-04T11:35:00;21.60;99.90
31799;DHT22;18374;51.136;3.502;2022-07-04T11:37:28;21.80;99.90
31799;DHT22;18374;51.136;3.502;2022-07-04T11:39:56;22.20;99.90
31799;DHT22;18374;51.136;3.502;2022-07-04T11:43:03;22.60;99.90
31799;DHT22;18374;51.136;3.502;2022-07-04T11:45:52;22.80;99.90
31799;DHT22;18374;51.136;3.502;2022-07-04T11:48:29;23.00;99.90
31799;DHT22;18374;51.136;3.502;2022-07-04T11:50:57;23.50;99.90
31799;DHT22;18374;51.136;3.502;2022-07-04T11:56:44;24.00;99.90
31799;DHT22;18374;51.136;3.502;2022-07-04T11:59:23;23.90;99.90
31799;DHT22;18374;51.136;3.502;2022-07-04T12:02:13;23.50;99.90
31799;DHT22;18374;51.136;3.502;2022-07-04T12:04:49;23.40;99.90
31799;DHT22;18374;51.136;3.502;2022-07-04T12:07:25;23.20;99.90
31799;DHT22;18374;51.136;3.502;2022-07-04T12:10:16;23.10;99.90
31799;DHT22;18374;51.136;3.502;2022-07-04T12:13:17;22.80;99.90
31799;DHT22;18374;51.136;3.502;2022-07-04T12:15:57;22.60;99.90
31799;DHT22;18374;51.136;3.502;2022-07-04T12:18:31;22.60;99.90
31799;DHT22;18374;51.136;3.502;2022-07-04T12:21:19;22.50;99.90
31799;DHT22;18374;51.136;3.502;2022-07-04T12:23:53;22.60;99.90
31799;DHT22;18374;51.136;3.502;2022-07-04T12:26:47;22.50;99.90
31799;DHT22;18374;51.136;3.502;2022-07-04T12:29:24;22.40;99.90
31799;DHT22;18374;51.136;3.502;2022-07-04T12:32:18;22.40;99.90
31799;DHT22;18374;51.136;3.502;2022-07-04T12:34:49;22.60;99.90
31799;DHT22;18374;51.136;3.502;2022-07-04T12:40:56;22.90;99.90
31799;DHT22;18374;51.136;3.502;2022-07-04T12:46:56;23.10;99.90
31799;DHT22;18374;51.136;3.502;2022-07-04T12:50:10;23.20;99.90
31799;DHT22;18374;51.136;3.502;2022-07-04T12:53:10;23.20;99.90
31799;DHT22;18374;51.136;3.502;2022-07-04T12:56:06;23.20;99.90
31799;DHT22;18374;51.136;3.502;2022-07-04T12:58:51;23.30;99.90
31799;DHT22;18374;51.136;3.502;2022-07-04T13:02:11;23.50;99.90
31799;DHT22;18374;51.136;3.502;2022-07-04T13:05:10;23.60;99.90
31799;DHT22;18374;51.136;3.502;2022-07-04T13:08:14;23.50;99.90
31799;DHT22;18374;51.136;3.502;2022-07-04T13:10:44;23.70;99.90
31799;DHT22;18374;51.136;3.502;2022-07-04T13:13:15;23.90;99.90
31799;DHT22;18374;51.136;3.502;2022-07-04T13:15:54;23.90;98.80
31799;DHT22;18374;51.136;3.502;2022-07-04T13:18:49;23.90;98.70
31799;DHT22;18374;51.136;3.502;2022-07-04T13:21:35;23.80;99.80
31799;DHT22;18374;51.136;3.502;2022-07-04T13:24:18;23.30;99.90
31799;DHT22;18374;51.136;3.502;2022-07-04T13:27:31;22.80;99.90
31799;DHT22;18374;51.136;3.502;2022-07-04T13:30:15;22.60;99.90
31799;DHT22;18374;51.136;3.502;2022-07-04T13:33:50;22.50;99.90
31799;DHT22;18374;51.136;3.502;2022-07-04T13:37:09;22.50;99.90
31799;DHT22;18374;51.136;3.502;2022-07-04T13:39:56;22.40;99.90
31799;DHT22;18374;51.136;3.502;2022-07-04T13:43:22;22.40;99.90
31799;DHT22;18374;51.136;3.502;2022-07-04T13:46:19;22.70;99.90
31799;DHT22;18374;51.136;3.502;2022-07-04T13:48:49;23.00;99.90
31799;DHT22;18374;51.136;3.502;2022-07-04T13:52:02;23.20;99.90
31799;DHT22;18374;51.136;3.502;2022-07-04T13:58:45;23.00;99.90
31799;DHT22;18374;51.136;3.502;2022-07-04T14:01:43;22.80;99.90
31799;DHT22;18374;51.136;3.502;2022-07-04T14:04:49;22.60;99.90
31799;DHT22;18374;51.136;3.502;2022-07-04T14:07:41;22.40;99.90
31799;DHT22;18374;51.136;3.502;2022-07-04T14:10:15;22.30;99.90
31799;DHT22;18374;51.136;3.502;2022-07-04T14:12:52;22.30;99.90
31799;DHT22;18374;51.136;3.502;2022-07-04T14:15:26;22.40;99.90
31799;DHT22;18374;51.136;3.502;2022-07-04T14:18:01;22.60;99.90
31799;DHT22;18374;51.136;3.502;2022-07-04T14:20:43;22.70;99.90
31799;DHT22;18374;51.136;3.502;2022-07-04T14:23:24;22.60;99.90
31799;DHT22;18374;51.136;3.502;2022-07-04T14:26:29;22.50;99.90
31799;DHT22;18374;51.136;3.502;2022-07-04T14:28:57;22.80;99.90
31799;DHT22;18374;51.136;3.502;2022-07-04T14:31:35;22.80;99.90
31799;DHT22;18374;51.136;3.502;2022-07-04T14:34:08;22.70;99.90
31799;DHT22;18374;51.136;3.502;2022-07-04T14:36:50;22.70;99.90
31799;DHT22;18374;51.136;3.502;2022-07-04T14:39:24;22.50;99.90
31799;DHT22;18374;51.136;3.502;2022-07-04T14:41:56;22.50;99.90
31799;DHT22;18374;51.136;3.502;2022-07-04T14:44:23;22.30;99.90
31799;DHT22;18374;51.136;3.502;2022-07-04T14:46:56;22.20;99.90
31799;DHT22;18374;51.136;3.502;2022-07-04T14:49:28;22.20;99.90
31799;DHT22;18374;51.136;3.502;2022-07-04T14:52:02;22.10;99.90
31799;DHT22;18374;51.136;3.502;2022-07-04T14:54:31;22.00;99.90
31799;DHT22;18374;51.136;3.502;2022-07-04T14:57:09;21.80;99.90
31799;DHT22;18374;51.136;3.502;2022-07-04T14:59:42;21.80;99.90
31799;DHT22;18374;51.136;3.502;2022-07-04T15:02:22;22.00;99.90
31799;DHT22;18374;51.136;3.502;2022-07-04T15:04:53;22.00;99.90
31799;DHT22;18374;51.136;3.502;2022-07-04T15:07:24;22.20;99.90
31799;DHT22;18374;51.136;3.502;2022-07-04T15:09:57;22.30;99.90
31799;DHT22;18374;51.136;3.502;2022-07-04T15:12:25;22.40;99.90
31799;DHT22;18374;51.136;3.502;2022-07-04T15:14:56;22.40;99.90
31799;DHT22;18374;51.136;3.502;2022-07-04T15:17:24;22.30;99.90
31799;DHT22;18374;51.136;3.502;2022-07-04T15:20:03;22.20;99.90
31799;DHT22;18374;51.136;3.502;2022-07-04T15:22:53;22.00;99.90
31799;DHT22;18374;51.136;3.502;2022-07-04T15:25:39;21.90;99.90
31799;DHT22;18374;51.136;3.502;2022-07-04T15:28:07;21.80;99.90
31799;DHT22;18374;51.136;3.502;2022-07-04T15:30:35;21.80;99.90
31799;DHT22;18374;51.136;3.502;2022-07-04T15:33:02;21.90;99.90
31799;DHT22;18374;51.136;3.502;2022-07-04T15:35:30;22.10;99.90
31799;DHT22;18374;51.136;3.502;2022-07-04T15:37:58;22.20;99.90
31799;DHT22;18374;51.136;3.502;2022-07-04T15:40:26;22.10;99.90
31799;DHT22;18374;51.136;3.502;2022-07-04T15:42:53;22.30;99.90
31799;DHT22;18374;51.136;3.502;2022-07-04T15:45:21;22.50;99.90
31799;DHT22;18374;51.136;3.502;2022-07-04T15:47:49;22.50;99.90
31799;DHT22;18374;51.136;3.502;2022-07-04T15:50:16;22.40;99.90
31799;DHT22;18374;51.136;3.502;2022-07-04T15:52:44;22.40;99.90
31799;DHT22;18374;51.136;3.502;2022-07-04T15:55:13;22.30;99.90
31799;DHT22;18374;51.136;3.502;2022-07-04T15:57:42;22.30;99.90
31799;DHT22;18374;51.136;3.502;2022-07-04T16:00:15;22.30;99.90
31799;DHT22;18374;51.136;3.502;2022-07-04T16:02:48;22.20;99.90
31799;DHT22;18374;51.136;3.502;2022-07-04T16:05:19;22.20;99.90
31799;DHT22;18374;51.136;3.502;2022-07-04T16:07:47;22.00;99.90
31799;DHT22;18374;51.136;3.502;2022-07-04T16:10:18;22.00;99.90
31799;DHT22;18374;51.136;3.502;2022-07-04T16:12:48;22.00;99.90
31799;DHT22;18374;51.136;3.502;2022-07-04T16:15:16;21.90;99.90
31799;DHT22;18374;51.136;3.502;2022-07-04T16:17:44;21.80;99.90
31799;DHT22;18374;51.136;3.502;2022-07-04T16:20:12;21.70;99.90
31799;DHT22;18374;51.136;3.502;2022-07-04T16:22:40;21.70;99.90
31799;DHT22;18374;51.136;3.502;2022-07-04T16:25:10;21.60;99.90
31799;DHT22;18374;51.136;3.502;2022-07-04T16:27:39;21.60;99.90
31799;DHT22;18374;51.136;3.502;2022-07-04T16:30:10;21.60;99.90
31799;DHT22;18374;51.136;3.502;2022-07-04T16:32:39;21.40;99.90